createdAt,value
2018-10-05T00:01:27.499Z,101298.23
2018-10-05T00:04:03.512Z,101296.67
2018-10-05T00:06:39.354Z,101296.47
2018-10-05T00:09:15.921Z,101293.75
2018-10-05T00:11:51.508Z,101297.09
2018-10-05T00:14:27.096Z,101295.23
2018-10-05T00:17:02.948Z,101297.73
2018-10-05T00:19:38.768Z,101298.06
2018-10-05T00:22:14.320Z,101298.91
2018-10-05T00:26:17.928Z,101305.49
2018-10-05T00:28:53.494Z,101305.07
2018-10-05T00:31:29.097Z,101303.89
2018-10-05T00:34:04.993Z,101307.12
2018-10-05T00:38:54.696Z,101311.66
2018-10-05T00:41:30.727Z,101311.46
2018-10-05T00:44:06.449Z,101307.42
2018-10-05T00:46:41.944Z,101311.46
2018-10-05T00:49:17.735Z,101319.87
2018-10-05T00:51:53.776Z,101320.17
2018-10-05T00:54:29.446Z,101322.86
2018-10-05T00:57:05.673Z,101325.89
2018-10-05T00:59:41.649Z,101331.58
2018-10-05T01:02:17.436Z,101334.27
2018-10-05T01:07:28.595Z,101322.22
2018-10-05T01:10:05.516Z,101324.85
2018-10-05T01:12:41.463Z,101327.04
2018-10-05T01:15:17.437Z,101323.34
2018-10-05T01:17:52.982Z,101317.63
2018-10-05T01:20:28.663Z,101330.88
2018-10-05T01:23:04.584Z,101335.45
2018-10-05T01:25:40.173Z,101336.80
2018-10-05T01:28:15.975Z,101335.45
2018-10-05T01:30:51.529Z,101340.83
2018-10-05T01:33:27.402Z,101340.30
2018-10-05T01:36:02.950Z,101342.17
2018-10-05T01:38:38.810Z,101344.19
2018-10-05T01:41:14.532Z,101347.08
2018-10-05T01:44:49.680Z,101361.73
2018-10-05T01:47:25.683Z,101361.23
2018-10-05T01:52:57.401Z,101361.15
2018-10-05T01:55:32.957Z,101362.94
2018-10-05T01:58:08.967Z,101368.66
2018-10-05T02:00:44.700Z,101366.30
2018-10-05T02:03:21.821Z,101378.52
2018-10-05T02:05:57.425Z,101383.40
2018-10-05T02:08:33.556Z,101387.78
2018-10-05T02:11:09.516Z,101387.78
2018-10-05T02:13:45.609Z,101393.80
2018-10-05T02:16:21.556Z,101391.11
2018-10-05T02:18:57.529Z,101391.42
2018-10-05T02:21:33.552Z,101396.80
2018-10-05T02:24:10.217Z,101396.80
2018-10-05T02:26:45.598Z,101400.02
2018-10-05T02:29:20.975Z,101403.22
2018-10-05T02:31:56.373Z,101404.23
2018-10-05T02:34:32.153Z,101401.03
2018-10-05T02:37:07.990Z,101399.34
2018-10-05T02:39:43.701Z,101394.50
2018-10-05T02:42:19.769Z,101393.16
2018-10-05T02:44:55.235Z,101395.31
2018-10-05T02:47:31.015Z,101407.25
2018-10-05T02:50:06.638Z,101406.91
2018-10-05T02:52:42.533Z,101404.42
2018-10-05T02:55:18.156Z,101401.39
2018-10-05T02:57:53.985Z,101408.66
2018-10-05T03:00:43.005Z,101415.69
2018-10-05T03:03:18.716Z,101410.81
2018-10-05T03:05:54.544Z,101415.05
2018-10-05T03:08:29.995Z,101410.70
2018-10-05T03:11:05.798Z,101418.44
2018-10-05T03:17:58.027Z,101421.21
2018-10-05T03:20:33.765Z,101428.09
2018-10-05T03:23:09.476Z,101438.32
2018-10-05T03:25:45.984Z,101441.16
2018-10-05T03:28:22.596Z,101436.42
2018-10-05T03:30:58.437Z,101439.25
2018-10-05T03:33:34.062Z,101445.62
2018-10-05T03:36:07.644Z,101448.96
2018-10-05T03:38:43.397Z,101446.58
2018-10-05T03:41:18.988Z,101453.45
2018-10-05T03:43:54.751Z,101454.29
2018-10-05T03:46:30.529Z,101449.75
2018-10-05T03:49:06.320Z,101454.23
2018-10-05T03:51:41.864Z,101456.93
2018-10-05T03:54:18.187Z,101459.62
2018-10-05T03:56:54.004Z,101458.61
2018-10-05T03:59:29.830Z,101455.73
2018-10-05T04:02:05.827Z,101458.42
2018-10-05T04:04:41.846Z,101463.30
2018-10-05T04:07:18.576Z,101469.69
2018-10-05T04:09:54.988Z,101472.88
2018-10-05T04:12:30.858Z,101474.23
2018-10-05T04:15:07.132Z,101476.11
2018-10-05T04:17:42.830Z,101483.64
2018-10-05T04:20:18.292Z,101487.73
2018-10-05T04:22:54.314Z,101479.02
2018-10-05T04:25:30.032Z,101485.52
2018-10-05T04:28:05.758Z,101482.19
2018-10-05T04:30:41.831Z,101487.42
2018-10-05T04:33:17.501Z,101486.92
2018-10-05T04:35:53.187Z,101489.92
2018-10-05T04:38:28.851Z,101492.95
2018-10-05T04:41:04.495Z,101495.00
2018-10-05T04:43:40.145Z,101496.36
2018-10-05T04:46:16.087Z,101502.53
2018-10-05T04:48:51.821Z,101503.88
2018-10-05T04:51:27.856Z,101509.09
2018-10-05T04:54:03.515Z,101511.45
2018-10-05T04:56:39.745Z,101508.56
2018-10-05T04:59:15.641Z,101519.86
2018-10-05T05:01:51.516Z,101519.52
2018-10-05T05:04:26.857Z,101522.91
2018-10-05T05:07:03.675Z,101517.03
2018-10-05T05:09:39.699Z,101521.22
2018-10-05T05:12:16.098Z,101529.98
2018-10-05T05:17:23.874Z,101525.60
2018-10-05T05:19:59.354Z,101532.52
2018-10-05T05:22:35.106Z,101530.84
2018-10-05T05:25:10.970Z,101541.59
2018-10-05T05:27:46.851Z,101537.76
2018-10-05T05:30:22.845Z,101543.98
2018-10-05T05:32:58.676Z,101541.45
2018-10-05T05:35:35.043Z,101545.48
2018-10-05T05:38:10.781Z,101541.14
2018-10-05T05:40:46.677Z,101547.87
2018-10-05T05:43:22.441Z,101547.53
2018-10-05T05:45:58.884Z,101550.22
2018-10-05T05:48:34.532Z,101554.25
2018-10-05T05:51:08.599Z,101557.14
2018-10-05T05:53:44.281Z,101554.64
2018-10-05T05:56:19.862Z,101556.14
2018-10-05T05:58:55.794Z,101556.14
2018-10-05T06:01:31.382Z,101553.95
2018-10-05T06:04:07.285Z,101548.58
2018-10-05T06:06:42.786Z,101551.80
2018-10-05T06:09:18.852Z,101549.11
2018-10-05T06:11:54.745Z,101554.49
2018-10-05T06:14:30.570Z,101554.66
2018-10-05T06:19:37.634Z,101555.34
2018-10-05T06:22:13.273Z,101552.66
2018-10-05T06:24:49.854Z,101548.66
2018-10-05T06:27:25.672Z,101549.16
2018-10-05T06:30:01.804Z,101544.78
2018-10-05T06:32:37.669Z,101542.59
2018-10-05T06:35:13.296Z,101543.94
2018-10-05T06:37:49.689Z,101542.97
2018-10-05T06:40:26.020Z,101540.91
2018-10-05T06:43:02.770Z,101539.26
2018-10-05T06:45:39.072Z,101531.19
2018-10-05T06:48:15.138Z,101536.56
2018-10-05T06:50:51.286Z,101538.23
2018-10-05T06:53:27.262Z,101545.98
2018-10-05T06:56:04.073Z,101545.98
2018-10-05T06:58:40.296Z,101548.67
2018-10-05T07:01:16.140Z,101542.64
2018-10-05T07:03:52.080Z,101541.61
2018-10-05T07:06:28.600Z,101538.80
2018-10-05T07:09:05.239Z,101540.45
2018-10-05T07:11:41.120Z,101534.42
2018-10-05T07:14:17.962Z,101530.58
2018-10-05T07:16:53.616Z,101524.86
2018-10-05T07:19:29.815Z,101531.59
2018-10-05T07:22:05.918Z,101531.59
2018-10-05T07:24:41.639Z,101528.05
2018-10-05T07:27:17.820Z,101530.44
2018-10-05T07:29:54.080Z,101531.77
2018-10-05T07:32:30.202Z,101524.20
2018-10-05T07:35:06.096Z,101525.74
2018-10-05T07:37:42.660Z,101524.56
2018-10-05T07:40:18.829Z,101516.18
2018-10-05T07:42:54.904Z,101515.15
2018-10-05T07:45:30.904Z,101519.72
2018-10-05T07:48:06.896Z,101524.56
2018-10-05T07:50:42.872Z,101526.94
2018-10-05T07:53:18.744Z,101517.23
2018-10-05T07:55:54.605Z,101525.79
2018-10-05T07:58:30.900Z,101517.87
2018-10-05T08:01:06.910Z,101516.53
2018-10-05T08:03:43.822Z,101513.00
2018-10-05T08:06:20.054Z,101516.23
2018-10-05T08:08:56.100Z,101524.80
2018-10-05T08:11:32.256Z,101519.91
2018-10-05T08:14:09.115Z,101526.14
2018-10-05T08:16:46.102Z,101525.14
2018-10-05T08:19:22.931Z,101521.64
2018-10-05T08:21:59.137Z,101523.98
2018-10-05T08:24:35.109Z,101524.98
2018-10-05T08:27:11.687Z,101526.03
2018-10-05T08:32:35.955Z,101528.91
2018-10-05T08:35:11.950Z,101533.94
2018-10-05T08:37:48.427Z,101526.72
2018-10-05T08:40:24.851Z,101528.06
2018-10-05T08:43:01.101Z,101531.25
2018-10-05T08:45:37.299Z,101534.98
2018-10-05T08:48:13.384Z,101547.38
2018-10-05T08:50:49.856Z,101548.23
2018-10-05T08:53:26.069Z,101547.58
2018-10-05T08:56:01.952Z,101551.61
2018-10-05T08:58:38.279Z,101553.11
2018-10-05T09:01:14.790Z,101564.70
2018-10-05T09:03:50.852Z,101561.52
2018-10-05T09:06:27.121Z,101565.40
2018-10-05T09:09:03.600Z,101568.09
2018-10-05T09:11:40.139Z,101570.77
2018-10-05T09:14:16.128Z,101572.81
2018-10-05T09:16:52.135Z,101574.50
2018-10-05T09:19:27.830Z,101568.97
2018-10-05T09:22:04.124Z,101568.78
2018-10-05T09:24:40.084Z,101576.19
2018-10-05T09:27:16.304Z,101573.00
2018-10-05T09:29:52.304Z,101570.81
2018-10-05T09:32:28.316Z,101575.84
2018-10-05T09:35:03.939Z,101565.63
2018-10-05T09:37:40.250Z,101572.84
2018-10-05T09:40:16.325Z,101567.12
2018-10-05T09:42:52.733Z,101563.78
2018-10-05T09:45:29.319Z,101563.78
2018-10-05T09:48:05.970Z,101559.44
2018-10-05T09:52:16.210Z,101563.16
2018-10-05T09:54:52.351Z,101557.09
2018-10-05T09:57:28.779Z,101551.41
2018-10-05T10:00:04.998Z,101550.06
2018-10-05T10:02:45.152Z,101551.41
2018-10-05T10:05:20.849Z,101541.66
2018-10-05T10:07:57.034Z,101541.84
2018-10-05T10:10:33.196Z,101537.28
2018-10-05T10:13:08.976Z,101538.31
2018-10-05T10:15:45.307Z,101541.50
2018-10-05T10:18:21.189Z,101537.81
2018-10-05T10:20:58.792Z,101538.16
2018-10-05T10:23:35.016Z,101540.00
2018-10-05T10:26:11.108Z,101535.97
2018-10-05T10:28:47.463Z,101532.94
2018-10-05T10:31:23.982Z,101531.59
2018-10-05T10:34:00.009Z,101541.00
2018-10-05T10:36:36.302Z,101543.84
2018-10-05T10:39:13.964Z,101534.84
2018-10-05T10:41:50.111Z,101537.23
2018-10-05T10:44:26.332Z,101528.35
2018-10-05T10:47:03.021Z,101529.23
2018-10-05T10:49:40.012Z,101531.75
2018-10-05T10:52:16.330Z,101530.94
2018-10-05T10:54:52.864Z,101528.75
2018-10-05T10:57:29.002Z,101527.72
2018-10-05T11:00:05.441Z,101527.72
2018-10-05T11:02:41.826Z,101529.25
2018-10-05T11:05:17.992Z,101538.00
2018-10-05T11:07:54.176Z,101542.21
2018-10-05T11:10:30.271Z,101542.90
2018-10-05T11:15:23.416Z,101551.64
2018-10-05T11:18:01.554Z,101548.95
2018-10-05T11:20:37.845Z,101548.61
2018-10-05T11:23:14.296Z,101548.61
2018-10-05T11:25:50.414Z,101541.73
2018-10-05T11:28:33.440Z,101535.55
2018-10-05T11:31:13.445Z,101546.95
2018-10-05T11:33:49.916Z,101542.42
2018-10-05T11:36:26.004Z,101548.97
2018-10-05T11:39:01.909Z,101553.00
2018-10-05T11:41:38.103Z,101549.66
2018-10-05T11:44:14.133Z,101548.81
2018-10-05T11:46:50.342Z,101546.16
2018-10-05T11:50:16.913Z,101547.51
2018-10-05T11:52:53.364Z,101554.04
2018-10-05T11:55:29.643Z,101563.94
2018-10-05T11:58:06.012Z,101564.62
2018-10-05T12:00:42.047Z,101558.94
2018-10-05T12:03:18.767Z,101555.59
2018-10-05T12:05:54.997Z,101555.59
2018-10-05T12:08:30.932Z,101559.77
2018-10-05T12:11:07.377Z,101559.95
2018-10-05T12:13:44.062Z,101561.79
2018-10-05T12:16:20.240Z,101565.50
2018-10-05T12:18:56.370Z,101566.69
2018-10-05T12:21:33.197Z,101573.39
2018-10-05T12:24:09.001Z,101574.26
2018-10-05T12:26:45.263Z,101576.78
2018-10-05T12:29:21.831Z,101574.24
2018-10-05T12:31:58.206Z,101578.27
2018-10-05T12:34:34.220Z,101580.29
2018-10-05T12:37:10.714Z,101585.34
2018-10-05T12:39:47.240Z,101584.50
2018-10-05T12:42:23.413Z,101581.65
2018-10-05T12:44:59.992Z,101575.97
2018-10-05T12:47:36.025Z,101578.30
2018-10-05T12:50:12.279Z,101580.64
2018-10-05T12:52:48.380Z,101587.88
2018-10-05T12:55:24.316Z,101582.00
2018-10-05T12:58:00.250Z,101583.02
2018-10-05T13:00:37.579Z,101580.67
2018-10-05T13:03:13.959Z,101581.17
2018-10-05T13:05:50.022Z,101591.59
2018-10-05T13:08:26.051Z,101589.40
2018-10-05T13:11:01.954Z,101586.55
2018-10-05T13:13:38.419Z,101592.94
2018-10-05T13:16:14.740Z,101593.09
2018-10-05T13:18:50.931Z,101588.40
2018-10-05T13:21:28.051Z,101590.77
2018-10-05T13:24:04.931Z,101587.91
2018-10-05T13:26:41.411Z,101586.08
2018-10-05T13:29:18.009Z,101593.46
2018-10-05T13:31:54.229Z,101602.00
2018-10-05T13:34:30.527Z,101603.14
2018-10-05T13:37:06.222Z,101609.50
2018-10-05T13:39:42.065Z,101612.02
2018-10-05T13:42:18.060Z,101612.55
2018-10-05T13:44:53.936Z,101620.42
2018-10-05T13:47:30.058Z,101626.45
2018-10-05T13:50:06.799Z,101629.64
2018-10-05T13:52:42.948Z,101620.60
2018-10-05T13:55:19.030Z,101627.63
2018-10-05T13:57:55.470Z,101630.31
2018-10-05T14:00:32.022Z,101627.14
2018-10-05T14:03:08.733Z,101632.66
2018-10-05T14:05:45.183Z,101630.15
2018-10-05T14:08:21.472Z,101632.66
2018-10-05T14:10:57.424Z,101630.97
2018-10-05T14:13:33.795Z,101635.84
2018-10-05T14:16:09.876Z,101633.33
2018-10-05T14:18:46.234Z,101640.36
2018-10-05T14:21:22.401Z,101643.39
2018-10-05T14:23:58.511Z,101634.81
2018-10-05T14:26:34.604Z,101635.84
2018-10-05T14:29:11.069Z,101632.66
2018-10-05T14:31:47.497Z,101637.18
2018-10-05T14:34:23.725Z,101634.84
2018-10-05T14:37:00.041Z,101636.33
2018-10-05T14:39:35.766Z,101633.64
2018-10-05T14:45:58.869Z,101644.73
2018-10-05T14:48:34.921Z,101648.25
2018-10-05T14:51:11.243Z,101654.29
2018-10-05T14:53:47.091Z,101646.74
2018-10-05T14:56:23.265Z,101649.25
2018-10-05T14:59:00.831Z,101647.41
2018-10-05T15:01:37.062Z,101651.61
2018-10-05T15:04:13.436Z,101650.58
2018-10-05T15:06:50.050Z,101644.23
2018-10-05T15:09:26.076Z,101652.09
2018-10-05T15:12:02.437Z,101649.59
2018-10-05T15:14:39.972Z,101653.44
2018-10-05T15:17:16.440Z,101661.48
2018-10-05T15:19:52.290Z,101670.87
2018-10-05T15:22:28.260Z,101671.54
2018-10-05T15:25:04.259Z,101670.87
2018-10-05T15:27:40.432Z,101674.40
2018-10-05T15:30:16.268Z,101675.56
2018-10-05T15:32:52.536Z,101674.22
2018-10-05T15:35:29.262Z,101671.39
2018-10-05T15:38:05.091Z,101665.00
2018-10-05T15:40:41.266Z,101659.14
2018-10-05T15:43:17.424Z,101665.85
2018-10-05T15:45:53.792Z,101666.84
2018-10-05T15:48:30.064Z,101672.73
2018-10-05T15:51:07.247Z,101677.57
2018-10-05T15:53:43.317Z,101672.38
2018-10-05T15:56:19.305Z,101662.15
2018-10-05T15:58:55.569Z,101667.37
2018-10-05T16:01:32.088Z,101671.22
2018-10-05T16:04:08.105Z,101679.44
2018-10-05T16:06:44.472Z,101679.09
2018-10-05T16:09:20.882Z,101684.63
2018-10-05T16:11:57.299Z,101679.61
2018-10-05T16:14:33.479Z,101673.89
2018-10-05T16:17:09.505Z,101677.92
2018-10-05T16:19:46.273Z,101679.93
2018-10-05T16:22:22.941Z,101681.77
2018-10-05T16:24:59.458Z,101683.45
2018-10-05T16:27:35.901Z,101672.91
2018-10-05T16:30:13.336Z,101676.26
2018-10-05T16:32:49.448Z,101669.55
2018-10-05T16:35:26.103Z,101662.32
2018-10-05T16:38:02.146Z,101663.66
2018-10-05T16:40:38.291Z,101660.48
2018-10-05T16:43:15.104Z,101659.81
2018-10-05T16:45:51.331Z,101658.97
2018-10-05T16:48:27.296Z,101657.13
2018-10-05T16:51:03.448Z,101654.27
2018-10-05T16:53:39.148Z,101648.76
2018-10-05T16:56:15.287Z,101648.23
2018-10-05T16:58:51.289Z,101651.94
2018-10-05T17:01:27.448Z,101649.08
2018-10-05T17:04:04.242Z,101646.39
2018-10-05T17:06:40.472Z,101639.19
2018-10-05T17:09:17.128Z,101643.39
2018-10-05T17:11:53.493Z,101642.54
2018-10-05T17:16:44.505Z,101630.47
2018-10-05T17:19:20.288Z,101640.36
2018-10-05T17:21:56.247Z,101631.64
2018-10-05T17:24:32.445Z,101626.63
2018-10-05T17:27:08.257Z,101632.30
2018-10-05T17:29:44.283Z,101637.36
2018-10-05T17:32:20.457Z,101643.22
2018-10-05T17:34:56.748Z,101644.55
2018-10-05T17:37:33.100Z,101642.38
2018-10-05T17:40:09.464Z,101642.87
2018-10-05T17:42:45.994Z,101630.48
2018-10-05T17:45:22.113Z,101627.80
2018-10-05T17:47:58.325Z,101640.71
2018-10-05T17:50:34.315Z,101637.00
2018-10-05T17:53:10.337Z,101629.45
2018-10-05T17:55:46.783Z,101624.09
2018-10-05T17:58:23.134Z,101630.80
2018-10-05T18:00:59.788Z,101627.97
2018-10-05T18:03:35.884Z,101621.75
2018-10-05T18:06:12.196Z,101632.66
2018-10-05T18:08:48.818Z,101618.58
2018-10-05T18:11:25.077Z,101620.93
2018-10-05T18:14:01.377Z,101613.36
2018-10-05T18:16:37.570Z,101625.80
2018-10-05T18:19:13.925Z,101623.96
2018-10-05T18:21:50.044Z,101616.77
2018-10-05T18:24:26.138Z,101603.34
2018-10-05T18:27:02.486Z,101605.53
2018-10-05T18:29:38.709Z,101611.22
2018-10-05T18:32:15.048Z,101619.27
2018-10-05T18:34:51.175Z,101619.61
2018-10-05T18:37:27.126Z,101610.72
2018-10-05T18:40:03.398Z,101607.54
2018-10-05T18:42:39.519Z,101605.17
2018-10-05T18:45:16.278Z,101611.88
2018-10-05T18:47:51.909Z,101613.57
2018-10-05T18:50:27.945Z,101614.91
2018-10-05T18:53:05.061Z,101615.73
2018-10-05T18:55:41.028Z,101615.58
2018-10-05T18:58:17.513Z,101611.55
2018-10-05T19:00:53.391Z,101599.80
2018-10-05T19:03:29.828Z,101592.94
2018-10-05T19:06:06.038Z,101593.75
2018-10-05T19:08:42.336Z,101592.41
2018-10-05T19:11:18.516Z,101586.89
2018-10-05T19:13:54.337Z,101591.73
2018-10-05T19:16:30.443Z,101585.87
2018-10-05T19:19:06.657Z,101576.64
2018-10-05T19:21:43.102Z,101582.86
2018-10-05T19:24:19.116Z,101577.98
2018-10-05T19:26:55.333Z,101568.94
2018-10-05T19:29:31.537Z,101570.45
2018-10-05T19:32:07.377Z,101571.80
2018-10-05T19:34:43.571Z,101569.92
2018-10-05T19:37:20.076Z,101565.73
2018-10-05T19:39:56.169Z,101571.11
2018-10-05T19:42:32.337Z,101577.30
2018-10-05T19:45:09.144Z,101572.27
2018-10-05T19:47:45.340Z,101585.20
2018-10-05T19:50:22.178Z,101582.83
2018-10-05T19:52:58.403Z,101570.25
2018-10-05T19:55:34.601Z,101567.38
2018-10-05T19:58:10.531Z,101554.31
2018-10-05T20:00:46.556Z,101553.63
2018-10-05T20:03:23.144Z,101545.89
2018-10-05T20:05:59.422Z,101539.53
2018-10-05T20:08:35.548Z,101545.25
2018-10-05T20:11:12.185Z,101549.09
2018-10-05T20:13:48.257Z,101549.94
2018-10-05T20:16:24.357Z,101551.09
2018-10-05T20:19:00.557Z,101542.55
2018-10-05T20:21:37.032Z,101535.98
2018-10-05T20:24:13.201Z,101536.00
2018-10-05T20:26:49.397Z,101530.09
2018-10-05T20:29:25.315Z,101526.41
2018-10-05T20:32:01.171Z,101520.55
2018-10-05T20:34:37.370Z,101526.58
2018-10-05T20:37:13.495Z,101522.36
2018-10-05T20:39:50.174Z,101523.70
2018-10-05T20:42:26.537Z,101516.00
2018-10-05T20:45:03.372Z,101506.42
2018-10-05T20:47:39.381Z,101494.33
2018-10-05T20:50:15.323Z,101491.97
2018-10-05T20:52:51.432Z,101491.47
2018-10-05T20:55:27.989Z,101500.70
2018-10-05T20:58:03.966Z,101504.73
2018-10-05T21:00:40.373Z,101512.11
2018-10-05T21:03:16.381Z,101508.39
2018-10-05T21:05:52.556Z,101492.13
2018-10-05T21:08:28.637Z,101472.80
2018-10-05T21:11:05.169Z,101470.46
2018-10-05T21:13:41.179Z,101462.75
2018-10-05T21:18:00.189Z,101451.32
2018-10-05T21:20:36.283Z,101451.67
2018-10-05T21:23:12.215Z,101463.06
2018-10-05T21:25:48.209Z,101441.58
2018-10-05T21:28:24.692Z,101429.31
2018-10-05T21:31:00.679Z,101434.68
2018-10-05T21:33:37.057Z,101426.34
2018-10-05T21:36:13.000Z,101440.70
2018-10-05T21:38:49.221Z,101426.78
2018-10-05T21:41:25.183Z,101431.46
2018-10-05T21:44:01.634Z,101434.30
2018-10-05T21:46:37.722Z,101433.30
2018-10-05T21:49:14.214Z,101416.50
2018-10-05T21:51:50.429Z,101424.37
2018-10-05T21:54:26.211Z,101421.49
2018-10-05T21:57:01.938Z,101415.97
2018-10-05T21:59:38.580Z,101414.23
2018-10-05T22:02:14.126Z,101410.55
2018-10-05T22:06:47.950Z,101417.77
2018-10-05T22:09:23.595Z,101421.45
2018-10-05T22:12:00.073Z,101418.58
2018-10-05T22:14:36.291Z,101413.20
2018-10-05T22:17:12.215Z,101408.48
2018-10-05T22:19:48.440Z,101411.82
2018-10-05T22:25:04.894Z,101398.05
2018-10-05T22:27:41.200Z,101396.00
2018-10-05T22:30:17.231Z,101399.53
2018-10-05T22:32:53.418Z,101392.97
2018-10-05T22:35:29.414Z,101387.91
2018-10-05T22:38:05.595Z,101381.84
2018-10-05T22:40:41.950Z,101380.34
2018-10-05T22:43:18.274Z,101379.30
2018-10-05T22:45:54.237Z,101370.55
2018-10-05T22:48:30.238Z,101368.51
2018-10-05T22:51:06.277Z,101367.50
2018-10-05T22:53:42.726Z,101368.84
2018-10-05T22:56:18.977Z,101368.16
2018-10-05T22:58:55.003Z,101370.34
2018-10-05T23:01:31.168Z,101366.15
2018-10-05T23:05:36.448Z,101370.83
2018-10-05T23:08:12.251Z,101368.48
2018-10-05T23:13:26.858Z,101359.42
2018-10-05T23:16:03.162Z,101364.45
2018-10-05T23:18:39.440Z,101364.59
2018-10-05T23:21:15.679Z,101363.37
2018-10-05T23:23:52.002Z,101372.92
2018-10-05T23:26:28.425Z,101376.45
2018-10-05T23:29:04.441Z,101386.70
2018-10-05T23:31:40.594Z,101386.01
2018-10-05T23:34:16.897Z,101373.91
2018-10-05T23:36:53.082Z,101374.87
2018-10-05T23:39:29.232Z,101364.65
2018-10-05T23:42:06.161Z,101355.23
2018-10-05T23:44:42.264Z,101349.67
2018-10-05T23:47:18.262Z,101343.79
2018-10-05T23:49:54.005Z,101348.66
2018-10-05T23:52:44.665Z,101350.82
2018-10-05T23:55:21.945Z,101360.88
2018-10-05T23:57:58.090Z,101355.34
